.
WxDataArchive / Data Records for 2007-03-01
2007-02-28 March 2007 2007-03-02

Data Records for Thursday, 01 March 2007

Time	Temp	Chill	HIndex	Humid	Dewpt	 Wind 	HiWind	WindDir	Rain 	Barom 
-----	----	-----	------	-----	-----	------	------	-------	-----	----- 
00:00	34.0	27.9	34.0	81	28.8	7	15	112	0.00	29.870 
00:05	34.1	26.8	34.1	80	28.6	9	16	112	0.00	29.866 
00:10	34.1	27.4	34.1	80	28.6	8	16	90	0.00	29.864 
00:15	34.1	27.4	34.1	80	28.6	8	18	112	0.00	29.856 
00:20	34.3	27.6	34.3	80	28.8	8	17	90	0.00	29.857 
00:25	34.1	28.0	34.1	80	28.6	7	14	112	0.00	29.853 
00:30	34.1	28.0	34.1	80	28.6	7	14	90	0.00	29.856 
00:35	34.1	27.4	34.1	80	28.6	8	14	112	0.00	29.853 
00:40	34.3	27.6	34.3	79	28.5	8	15	112	0.00	29.852 
00:45	34.1	27.4	34.1	80	28.6	8	15	112	0.00	29.851 
00:50	34.1	27.4	34.1	80	28.6	8	16	112	0.00	29.852 
00:55	34.1	27.4	34.1	80	28.6	8	17	112	0.00	29.851 
01:00	34.1	26.8	34.1	80	28.6	9	21	90	0.00	29.849 
01:05	34.0	27.9	34.0	81	28.8	7	14	112	0.00	29.849 
01:10	34.0	27.9	34.0	81	28.8	7	16	112	0.00	29.847 
01:15	34.0	26.7	34.0	81	28.8	9	15	112	0.00	29.840 
01:20	34.0	27.3	34.0	81	28.8	8	14	112	0.00	29.837 
01:25	33.8	27.0	33.8	81	28.6	8	14	112	0.00	29.834 
01:30	34.0	26.7	34.0	81	28.8	9	17	112	0.00	29.834 
01:35	34.0	26.7	34.0	81	28.8	9	16	112	0.00	29.834 
01:40	34.0	27.3	34.0	81	28.8	8	20	112	0.00	29.831 
01:45	34.0	27.3	34.0	82	29.1	8	16	112	0.00	29.833 
01:50	33.8	27.7	33.8	83	29.2	7	14	112	0.00	29.834 
01:55	33.7	26.9	33.7	84	29.4	8	14	90	0.00	29.823 
02:00	33.5	26.7	33.5	84	29.2	8	15	112	0.00	29.815 
02:05	33.7	26.9	33.7	84	29.4	8	14	90	0.00	29.815 
02:10	33.7	26.3	33.7	83	29.1	9	16	112	0.00	29.815 
02:15	33.7	26.9	33.7	83	29.1	8	12	90	0.00	29.818 
02:20	33.7	29.1	33.7	83	29.1	5	12	90	0.00	29.820 
02:25	33.7	26.9	33.7	83	29.1	8	17	112	0.00	29.815 
02:30	33.8	27.0	33.8	82	28.9	8	14	112	0.00	29.804 
02:35	33.8	27.0	33.8	82	28.9	8	15	112	0.00	29.797 
02:40	33.8	27.0	33.8	82	28.9	8	16	112	0.00	29.789 
02:45	33.8	26.5	33.8	82	28.9	9	20	112	0.00	29.786 
02:50	33.8	27.0	33.8	82	28.9	8	15	90	0.00	29.785 
02:55	33.8	26.0	33.8	82	28.9	10	23	112	0.00	29.776 
03:00	33.8	26.5	33.8	82	28.9	9	17	90	0.00	29.780 
03:05	33.8	26.5	33.8	82	28.9	9	14	90	0.00	29.773 
03:10	33.8	27.0	33.8	82	28.9	8	15	112	0.00	29.771 
03:15	33.7	26.3	33.7	83	29.1	9	17	90	0.01	29.767 
03:20	33.5	27.3	33.5	84	29.2	7	15	90	0.00	29.765 
03:25	33.4	27.2	33.4	84	29.1	7	14	112	0.00	29.769 
03:30	33.5	28.0	33.5	84	29.2	6	11	112	0.00	29.788 
03:35	33.5	29.8	33.5	84	29.2	4	10	112	0.00	29.790 
03:40	33.5	29.8	33.5	84	29.2	4	10	90	0.00	29.796 
03:45	33.5	33.5	33.5	85	29.5	3	9	112	0.01	29.791 
03:50	33.4	28.7	33.4	86	29.7	5	11	112	0.01	29.788 
03:55	33.1	27.5	33.1	88	29.9	6	12	112	0.01	29.774 
04:00	33.1	26.2	33.1	88	29.9	8	15	112	0.00	29.757 
04:05	33.1	27.5	33.1	88	29.9	6	14	112	0.01	29.747 
04:10	33.1	26.2	33.1	88	29.9	8	15	112	0.00	29.737 
04:15	33.1	26.2	33.1	88	29.9	8	21	112	0.00	29.725 
04:20	33.4	26.6	33.4	87	30.0	8	16	90	0.00	29.728 
04:25	33.5	25.6	33.5	86	29.8	10	17	112	0.01	29.717 
04:30	33.5	25.6	33.5	86	29.8	10	16	112	0.01	29.715 
04:35	33.5	25.6	33.5	86	29.8	10	18	112	0.00	29.703 
04:40	33.5	26.1	33.5	86	29.8	9	18	112	0.00	29.700 
04:45	33.7	26.3	33.7	86	30.0	9	15	112	0.00	29.692 
04:50	33.7	25.8	33.7	85	29.7	10	20	90	0.00	29.693 
04:55	33.7	25.8	33.7	85	29.7	10	16	112	0.00	29.690 
05:00	33.8	26.5	33.8	84	29.5	9	17	112	0.00	29.685 
05:05	33.8	26.0	33.8	84	29.5	10	19	112	0.00	29.684 
05:10	34.0	26.2	34.0	84	29.7	10	16	112	0.00	29.690 
05:15	33.8	26.0	33.8	84	29.5	10	19	90	0.00	29.682 
05:20	33.8	26.5	33.8	84	29.5	9	16	112	0.00	29.680 
05:25	33.7	25.8	33.7	85	29.7	10	15	112	0.00	29.684 
05:30	33.7	25.4	33.7	85	29.7	11	19	112	0.00	29.678 
05:35	33.5	25.6	33.5	87	30.1	10	20	112	0.01	29.677 
05:40	33.2	25.7	33.2	88	30.0	9	18	112	0.04	29.670 
05:45	33.1	25.1	33.1	89	30.2	10	15	112	0.00	29.663 
05:50	33.1	26.2	33.1	89	30.2	8	16	90	0.00	29.664 
05:55	33.1	26.8	33.1	89	30.2	7	13	112	0.00	29.665 
06:00	33.2	26.9	33.2	89	30.3	7	15	90	0.00	29.674 
06:05	33.4	27.2	33.4	88	30.2	7	18	90	0.00	29.680 
06:10	33.4	27.2	33.4	88	30.2	7	13	112	0.00	29.686 
06:15	33.5	26.7	33.5	88	30.3	8	17	112	0.00	29.681 
06:20	33.5	26.7	33.5	88	30.3	8	17	90	0.01	29.676 
06:25	33.4	27.2	33.4	89	30.5	7	13	90	0.02	29.677 
06:30	33.4	26.6	33.4	89	30.5	8	17	90	0.00	29.666 
06:35	33.4	26.6	33.4	89	30.5	8	19	112	0.00	29.667 
06:40	33.5	25.6	33.5	88	30.3	10	16	112	0.00	29.667 
06:45	33.5	25.6	33.5	88	30.3	10	21	112	0.00	29.650 
06:50	33.5	25.1	33.5	88	30.3	11	16	90	0.00	29.640 
06:55	33.5	26.1	33.5	87	30.1	9	17	90	0.00	29.642 
07:00	33.5	25.6	33.5	87	30.1	10	18	112	0.00	29.635 
07:05	33.5	25.6	33.5	87	30.1	10	18	112	0.00	29.633 
07:10	33.5	27.3	33.5	87	30.1	7	18	112	0.00	29.648 
07:15	33.5	26.1	33.5	87	30.1	9	17	112	0.00	29.647 
07:20	33.5	26.7	33.5	87	30.1	8	14	112	0.00	29.646 
07:25	33.7	26.9	33.7	86	30.0	8	15	112	0.00	29.644 
07:30	33.7	26.3	33.7	87	30.3	9	16	112	0.00	29.634 
07:35	33.5	27.3	33.5	88	30.3	7	15	112	0.00	29.633 
07:40	33.7	27.5	33.7	88	30.5	7	15	112	0.01	29.637 
07:45	33.7	28.3	33.7	88	30.5	6	13	90	0.01	29.631 
07:50	33.7	27.5	33.7	88	30.5	7	14	90	0.01	29.626 
07:55	33.7	26.9	33.7	89	30.8	8	14	90	0.02	29.617 
08:00	33.8	27.0	33.8	89	30.9	8	13	112	0.01	29.600 
08:05	33.8	27.7	33.8	89	30.9	7	12	112	0.00	29.600 
08:10	33.8	27.7	33.8	90	31.2	7	12	112	0.00	29.598 
08:15	34.0	27.9	34.0	89	31.1	7	13	112	0.00	29.596 
08:20	34.1	28.0	34.1	89	31.2	7	14	90	0.00	29.591 
08:25	34.3	27.6	34.3	89	31.4	8	18	112	0.00	29.591 
08:30	34.4	27.2	34.4	93	32.6	9	16	112	0.00	29.584 
08:35	34.4	28.4	34.4	89	31.5	7	16	112	0.00	29.582 
08:40	34.3	28.3	34.3	89	31.4	7	14	112	0.00	29.575 
08:45	34.3	29.0	34.3	89	31.4	6	16	112	0.00	29.568 
08:50	34.3	28.3	34.3	90	31.7	7	12	112	0.00	29.568 
08:55	34.4	28.4	34.4	89	31.5	7	11	112	0.00	29.565 
09:00	34.6	27.5	34.6	88	31.4	9	16	90	0.00	29.557 
09:05	34.7	28.8	34.7	89	31.8	7	14	112	0.00	29.564 
09:10	35.0	29.8	35.0	89	32.1	6	16	112	0.01	29.564 
09:15	35.0	35.0	35.0	89	32.1	2	7	90	0.01	29.591 
09:20	34.9	34.9	34.9	89	32.0	1	2	90	0.01	29.599 
09:25	34.7	34.7	34.7	90	32.1	2	4	68	0.00	29.585 
09:30	34.7	34.7	34.7	91	32.3	2	7	68	0.01	29.584 
09:35	34.6	34.6	34.6	91	32.2	1	5	112	0.01	29.589 
09:40	34.6	34.6	34.6	91	32.2	2	5	68	0.01	29.599 
09:45	34.6	34.6	34.6	92	32.5	1	5	135	0.01	29.595 
09:50	34.6	34.6	34.6	92	32.5	2	5	90	0.00	29.586 
09:55	34.6	34.6	34.6	92	32.5	2	5	45	0.01	29.585 
10:00	34.6	31.1	34.6	92	32.5	4	9	112	0.01	29.581 
10:05	34.6	31.1	34.6	92	32.5	4	12	90	0.01	29.581 
10:10	34.4	29.9	34.4	92	32.3	5	11	112	0.00	29.573 
10:15	34.4	29.1	34.4	93	32.6	6	12	112	0.01	29.567 
10:20	34.6	30.1	34.6	93	32.8	5	12	90	0.01	29.565 
10:25	34.6	31.1	34.6	93	32.8	4	9	112	0.01	29.566 
10:30	34.6	30.1	34.6	93	32.8	5	10	112	0.01	29.564 
10:35	34.7	31.2	34.7	94	33.2	4	11	112	0.00	29.564 
10:40	34.7	31.2	34.7	94	33.2	4	9	112	0.00	29.564 
10:45	34.9	30.5	34.9	94	33.4	5	9	112	0.00	29.553 
10:50	35.0	30.6	35.0	94	33.5	5	10	112	0.00	29.554 
10:55	35.3	30.2	35.3	94	33.7	6	12	112	0.00	29.551 
11:00	35.2	29.4	35.2	94	33.6	7	16	112	0.00	29.543 
11:05	35.0	30.6	35.0	94	33.5	5	9	112	0.00	29.540 
11:10	35.0	30.6	35.0	94	33.5	5	10	112	0.00	29.542 
11:15	34.9	30.5	34.9	94	33.4	5	10	112	0.00	29.537 
11:20	35.0	30.6	35.0	94	33.5	5	11	112	0.00	29.534 
11:25	35.2	30.0	35.2	94	33.6	6	14	90	0.01	29.524 
11:30	35.3	31.9	35.3	95	34.0	4	8	90	0.01	29.523 
11:35	35.8	35.8	35.8	95	34.5	3	5	112	0.00	29.519 
11:40	36.0	36.0	36.0	95	34.7	3	9	112	0.01	29.519 
11:45	36.0	32.7	36.0	95	34.7	4	9	90	0.00	29.518 
11:50	36.0	31.8	36.0	95	34.7	5	13	112	0.00	29.519 
11:55	36.0	31.8	36.0	95	34.7	5	9	90	0.01	29.512 
12:00	36.0	32.7	36.0	95	34.7	4	6	112	0.00	29.505 
12:05	36.0	32.7	36.0	95	34.7	4	10	90	0.00	29.504 
12:10	36.0	36.0	36.0	95	34.7	3	6	112	0.00	29.502 
12:15	36.2	32.9	36.2	95	34.9	4	10	112	0.00	29.493 
12:20	36.2	32.9	36.2	96	35.2	4	8	90	0.00	29.488 
12:25	36.2	32.0	36.2	95	34.9	5	10	90	0.00	29.487 
12:30	36.2	32.9	36.2	96	35.2	4	9	112	0.00	29.485 
12:35	36.3	33.0	36.3	96	35.3	4	7	90	0.00	29.481 
12:40	36.2	32.9	36.2	96	35.2	4	7	112	0.00	29.475 
12:45	36.2	32.9	36.2	96	35.2	4	7	112	0.00	29.472 
12:50	36.2	32.9	36.2	96	35.2	4	8	112	0.00	29.470 
12:55	36.2	32.9	36.2	96	35.2	4	6	90	0.00	29.467 
13:00	36.2	32.9	36.2	96	35.2	4	9	90	0.00	29.457 
13:05	36.2	32.0	36.2	96	35.2	5	9	90	0.00	29.456 
13:10	36.2	32.9	36.2	96	35.2	4	7	90	0.00	29.450 
13:15	36.3	33.0	36.3	96	35.3	4	6	90	0.00	29.441 
13:20	36.5	33.3	36.5	96	35.5	4	9	90	0.00	29.439 
13:25	36.5	33.3	36.5	96	35.5	4	7	112	0.00	29.431 
13:30	36.6	33.4	36.6	96	35.6	4	11	90	0.00	29.427 
13:35	36.8	36.8	36.8	96	35.8	3	9	112	0.00	29.426 
13:40	36.9	36.9	36.9	96	35.9	2	6	112	0.00	29.426 
13:45	36.9	36.9	36.9	96	35.9	2	5	112	0.00	29.425 
13:50	37.0	37.0	37.0	96	36.0	3	7	112	0.00	29.424 
13:55	37.0	33.9	37.0	96	36.0	4	8	112	0.00	29.420 
14:00	37.0	33.9	37.0	96	36.0	4	9	112	0.00	29.408 
14:05	37.2	33.2	37.2	96	36.2	5	11	112	0.00	29.400 
14:10	37.3	34.2	37.3	96	36.3	4	7	90	0.00	29.396 
14:15	37.3	37.3	37.3	96	36.3	3	7	90	0.00	29.393 
14:20	37.5	32.8	37.5	96	36.5	6	12	90	0.00	29.387 
14:25	37.3	33.3	37.3	96	36.3	5	10	112	0.00	29.389 
14:30	37.3	34.2	37.3	96	36.3	4	7	112	0.00	29.394 
14:35	37.3	34.2	37.3	96	36.3	4	7	112	0.00	29.397 
14:40	37.3	34.2	37.3	96	36.3	4	7	112	0.00	29.396 
14:45	37.5	34.4	37.5	96	36.5	4	7	112	0.00	29.390 
14:50	37.5	34.4	37.5	96	36.5	4	6	90	0.00	29.386 
14:55	37.5	37.5	37.5	96	36.5	3	6	90	0.00	29.376 
15:00	37.6	34.5	37.6	96	36.6	4	10	112	0.00	29.358 
15:05	37.6	34.5	37.6	96	36.6	4	7	112	0.00	29.357 
15:10	37.8	34.8	37.8	96	36.8	4	8	90	0.00	29.350 
15:15	37.9	34.0	37.9	96	36.9	5	10	90	0.00	29.342 
15:20	37.9	37.9	37.9	96	36.9	3	6	112	0.00	29.341 
15:25	37.9	37.9	37.9	96	36.9	3	7	112	0.00	29.320 
15:30	38.0	38.0	38.0	96	37.0	3	7	112	0.00	29.318 
15:35	38.3	38.3	38.3	96	37.3	3	5	90	0.00	29.322 
15:40	38.5	38.5	38.5	96	37.5	3	9	90	0.00	29.325 
15:45	38.5	38.5	38.5	96	37.5	3	6	90	0.00	29.299 
15:50	38.5	38.5	38.5	96	37.5	3	6	112	0.00	29.307 
15:55	38.6	35.7	38.6	96	37.6	4	6	90	0.00	29.299 
16:00	38.8	38.8	38.8	96	37.8	3	7	90	0.00	29.301 
16:05	38.6	38.6	38.6	96	37.6	3	5	90	0.00	29.303 
16:10	38.8	38.8	38.8	97	38.0	3	6	112	0.00	29.304 
16:15	38.9	38.9	38.9	97	38.1	3	5	112	0.00	29.314 
16:20	38.8	38.8	38.8	97	38.0	3	5	90	0.00	29.309 
16:25	38.8	38.8	38.8	97	38.0	3	5	90	0.00	29.296 
16:30	38.9	36.0	38.9	97	38.1	4	7	90	0.00	29.279 
16:35	39.2	39.2	39.2	97	38.4	3	8	90	0.00	29.278 
16:40	39.5	39.5	39.5	97	38.7	3	6	112	0.00	29.282 
16:45	40.2	40.2	40.2	97	39.4	2	5	112	0.00	29.278 
16:50	40.5	40.5	40.5	97	39.7	1	4	112	0.00	29.279 
16:55	40.5	40.5	40.5	98	40.0	0	2	112	0.01	29.289 
17:00	40.9	40.9	40.9	98	40.4	1	3	90	0.01	29.280 
17:05	41.2	41.2	41.2	98	40.7	2	4	90	0.01	29.277 
17:10	41.8	41.8	41.8	98	41.3	2	4	90	0.00	29.276 
17:15	42.6	42.6	42.6	98	42.1	2	5	90	0.00	29.260 
17:20	43.8	43.8	43.8	98	43.3	3	7	112	0.00	29.254 
17:25	44.6	44.6	44.6	98	44.1	3	7	112	0.00	29.254 
17:30	44.9	44.9	44.9	98	44.4	3	6	112	0.00	29.253 
17:35	45.1	45.1	45.1	98	44.6	3	7	112	0.00	29.242 
17:40	45.2	45.2	45.2	98	44.7	2	6	112	0.00	29.237 
17:45	45.1	45.1	45.1	98	44.6	2	5	112	0.00	29.231 
17:50	45.4	43.6	45.4	98	44.9	4	7	112	0.00	29.228 
17:55	45.4	45.4	45.4	98	44.9	3	9	112	0.00	29.225 
18:00	45.4	45.4	45.4	98	44.9	3	7	112	0.00	29.210 
18:05	45.7	45.7	45.7	98	45.2	3	8	90	0.00	29.209 
18:10	45.8	45.8	45.8	98	45.3	3	9	112	0.00	29.201 
18:15	45.8	45.8	45.8	98	45.3	2	6	112	0.00	29.195 
18:20	45.7	45.7	45.7	98	45.2	2	5	112	0.00	29.200 
18:25	45.5	45.5	45.5	98	45.0	1	5	90	0.00	29.197 
18:30	45.5	45.5	45.5	98	45.0	2	5	112	0.00	29.199 
18:35	45.7	45.7	45.7	98	45.2	3	11	90	0.00	29.202 
18:40	45.8	45.8	45.8	98	45.3	3	7	90	0.00	29.201 
18:45	45.8	45.8	45.8	98	45.3	3	7	112	0.00	29.209 
18:50	45.8	45.8	45.8	98	45.3	3	7	112	0.00	29.206 
18:55	45.7	43.9	45.7	97	44.9	4	10	112	0.00	29.188 
19:00	45.5	42.9	45.5	96	44.4	5	14	112	0.00	29.160 
19:05	45.4	43.6	45.4	96	44.3	4	6	112	0.00	29.156 
19:10	45.2	42.6	45.2	95	43.9	5	12	112	0.00	29.131 
19:15	45.2	42.0	45.2	95	43.9	6	15	112	0.00	29.136 
19:20	45.2	43.3	45.2	95	43.9	4	10	90	0.00	29.141 
19:25	45.4	42.8	45.4	95	44.1	5	11	90	0.00	29.159 
19:30	45.5	42.3	45.5	95	44.2	6	12	112	0.00	29.147 
19:35	45.5	42.3	45.5	95	44.2	6	14	90	0.00	29.148 
19:40	45.5	42.9	45.5	95	44.2	5	10	112	0.00	29.147 
19:45	45.7	43.2	45.7	95	44.4	5	11	112	0.00	29.152 
19:50	45.8	44.0	45.8	95	44.4	4	10	90	0.00	29.148 
19:55	46.0	44.2	46.0	95	44.6	4	11	90	0.00	29.148 
20:00	46.0	46.0	46.0	95	44.6	3	10	135	0.00	29.162 
20:05	46.0	46.0	46.0	94	44.4	3	10	90	0.00	29.164 
20:10	46.1	46.1	46.1	94	44.5	3	11	90	0.00	29.151 
20:15	46.0	46.0	46.0	94	44.4	2	5	135	0.00	29.159 
20:20	46.1	46.1	46.1	94	44.5	2	6	112	0.00	29.161 
20:25	46.2	46.2	46.2	95	44.8	2	7	112	0.00	29.148 
20:30	46.2	46.2	46.2	94	44.6	3	6	112	0.00	29.149 
20:35	46.4	46.4	46.4	94	44.8	3	9	90	0.00	29.147 
20:40	46.4	46.4	46.4	94	44.8	2	6	112	0.00	29.147 
20:45	46.1	46.1	46.1	94	44.5	1	2	112	0.00	29.150 
20:50	46.1	46.1	46.1	94	44.5	3	9	270	0.00	29.173 
20:55	46.2	43.8	46.2	95	44.8	5	12	270	0.00	29.177 
21:00	46.1	46.1	46.1	94	44.5	2	4	248	0.00	29.168 
21:05	46.1	46.1	46.1	94	44.5	1	3	225	0.00	29.165 
21:10	46.0	46.0	46.0	94	44.4	1	3	248	0.00	29.163 
21:15	45.8	45.8	45.8	94	44.2	1	2	248	0.00	29.165 
21:20	45.7	45.7	45.7	94	44.1	1	3	248	0.00	29.169 
21:25	45.7	45.7	45.7	94	44.1	1	3	248	0.00	29.168 
21:30	45.4	45.4	45.4	94	43.8	1	3	248	0.00	29.166 
21:35	45.2	45.2	45.2	94	43.6	1	3	248	0.00	29.168 
21:40	45.1	45.1	45.1	95	43.8	1	3	248	0.00	29.171 
21:45	44.9	44.9	44.9	95	43.6	0	2	248	0.01	29.177 
21:50	44.8	44.8	44.8	95	43.5	0	3	248	0.00	29.177 
21:55	44.6	44.6	44.6	95	43.3	1	3	248	0.00	29.179 
22:00	44.6	44.6	44.6	95	43.3	2	6	248	0.01	29.185 
22:05	44.3	42.3	44.3	95	43.0	4	10	270	0.00	29.192 
22:10	42.8	39.1	42.8	91	40.4	6	16	270	0.00	29.195 
22:15	42.1	38.9	42.1	89	39.1	5	15	270	0.00	29.202 
22:20	41.6	38.4	41.6	88	38.3	5	12	270	0.00	29.202 
22:25	41.3	38.8	41.3	88	38.0	4	11	270	0.01	29.202 
22:30	41.1	38.6	41.1	88	37.8	4	14	270	0.00	29.201 
22:35	40.8	38.2	40.8	88	37.5	4	9	270	0.00	29.206 
22:40	40.3	37.7	40.3	88	37.0	4	10	270	0.00	29.211 
22:45	39.9	37.2	39.9	87	36.4	4	9	270	0.00	29.213 
22:50	39.5	35.9	39.5	85	35.4	5	14	270	0.00	29.214 
22:55	39.1	34.1	39.1	81	33.8	7	17	270	0.00	29.214 
23:00	38.8	33.7	38.8	78	32.5	7	16	270	0.00	29.214 
23:05	38.3	33.7	38.3	77	31.7	6	15	270	0.00	29.216 
23:10	38.0	34.1	38.0	78	31.8	5	13	270	0.00	29.219 
23:15	37.8	33.1	37.8	77	31.2	6	15	270	0.00	29.219 
23:20	37.5	33.5	37.5	78	31.3	5	14	270	0.00	29.220 
23:25	37.3	32.5	37.3	78	31.1	6	15	270	0.00	29.228 
23:30	37.0	32.9	37.0	78	30.8	5	11	270	0.00	29.229 
23:35	36.9	33.7	36.9	79	31.0	4	9	270	0.00	29.232 
23:40	36.8	36.8	36.8	79	30.9	3	9	270	0.00	29.232 
23:45	36.6	33.4	36.6	80	31.0	4	12	270	0.00	29.233 
23:50	36.6	31.7	36.6	78	30.4	6	13	270	0.00	29.232 
23:55	36.6	32.5	36.6	77	30.1	5	16	270	0.00	29.233 

CoCoRaHS
IN-AL-39
A2 Web Hosting
Creative Commons License
GoDaddy
Look for:

loaded 2017-12-11 12:32:31 • last modified 2010-11-18 10:43:29
Privacy PolicyDisclaimer
• wx.awcolley.com is powered by PmWiki v.2002016 •
• all content (unless otherwise noted) © 2017 A W Colley